createdAt,value
2023-05-14T00:00:29.414Z,52073.91
2023-05-14T00:02:56.445Z,52071.84
2023-05-14T00:05:23.449Z,52063.72
2023-05-14T00:07:49.979Z,52080.00
2023-05-14T00:10:17.753Z,52059.66
2023-05-14T00:12:44.194Z,52114.59
2023-05-14T00:15:10.810Z,52100.34
2023-05-14T00:17:38.148Z,52094.25
2023-05-14T00:20:07.308Z,52069.81
2023-05-14T00:22:34.389Z,52128.81
2023-05-14T00:25:00.954Z,52102.38
2023-05-14T00:27:27.350Z,52112.56
2023-05-14T00:29:53.888Z,52132.91
2023-05-14T00:32:20.499Z,52088.13
2023-05-14T00:34:47.124Z,52120.69
2023-05-14T00:37:13.700Z,52143.06
2023-05-14T00:39:40.312Z,52102.38
2023-05-14T00:42:07.086Z,52126.78
2023-05-14T00:44:33.600Z,52128.81
2023-05-14T00:47:00.620Z,52118.66
2023-05-14T00:49:28.744Z,52096.28
2023-05-14T00:51:55.963Z,52169.53
2023-05-14T00:54:22.815Z,52104.41
2023-05-14T00:56:49.352Z,52134.94
2023-05-14T00:59:15.883Z,52106.44
2023-05-14T01:01:42.939Z,52104.41
2023-05-14T01:04:11.515Z,52116.63
2023-05-14T01:06:49.406Z,52110.53
2023-05-14T01:09:36.610Z,52104.41
2023-05-14T01:12:12.420Z,52092.22
2023-05-14T01:14:50.381Z,52141.03
2023-05-14T01:17:20.111Z,52102.38
2023-05-14T01:19:47.795Z,52122.72
2023-05-14T01:22:14.508Z,52094.25
2023-05-14T01:24:41.122Z,52130.88
2023-05-14T01:27:19.474Z,52106.44
2023-05-14T01:29:57.937Z,52094.25
2023-05-14T01:32:25.970Z,52116.63
2023-05-14T01:34:53.938Z,52145.09
2023-05-14T01:37:21.440Z,52145.09
2023-05-14T01:39:49.543Z,52139.00
2023-05-14T01:42:16.199Z,52128.81
2023-05-14T01:44:43.273Z,52118.66
2023-05-14T01:47:09.700Z,52102.38
2023-05-14T01:49:37.229Z,52151.22
2023-05-14T01:52:03.947Z,52098.31
2023-05-14T01:54:30.597Z,52171.56
2023-05-14T01:56:57.116Z,52102.38
2023-05-14T01:59:23.610Z,52094.25
2023-05-14T02:01:50.154Z,52122.72
2023-05-14T02:04:16.648Z,52098.31
2023-05-14T02:06:43.245Z,52130.88
2023-05-14T02:09:09.750Z,52130.88
2023-05-14T02:11:36.241Z,52114.59
2023-05-14T02:14:02.697Z,52151.22
2023-05-14T02:16:29.314Z,52100.34
2023-05-14T02:18:55.874Z,52134.94
2023-05-14T02:21:22.447Z,52153.25
2023-05-14T02:23:49.600Z,52118.66
2023-05-14T02:26:16.175Z,52151.22
2023-05-14T02:28:42.617Z,52128.81
2023-05-14T02:31:09.204Z,52114.59
2023-05-14T02:33:35.808Z,52126.78
2023-05-14T02:36:02.445Z,52112.56
2023-05-14T02:38:28.874Z,52120.69
2023-05-14T02:40:55.354Z,52153.25
2023-05-14T02:43:21.834Z,52104.41
2023-05-14T02:45:48.305Z,52118.66
2023-05-14T02:48:14.829Z,52147.13
2023-05-14T02:50:41.588Z,52141.03
2023-05-14T02:53:08.739Z,52120.69
2023-05-14T02:55:36.421Z,52169.53
2023-05-14T02:58:02.997Z,52169.53
2023-05-14T03:00:29.498Z,52122.72
2023-05-14T03:02:56.366Z,52126.78
2023-05-14T03:05:23.207Z,52132.91
2023-05-14T03:07:51.865Z,52143.06
2023-05-14T03:10:26.025Z,52143.06
2023-05-14T03:12:52.704Z,52126.78
2023-05-14T03:15:19.204Z,52161.38
2023-05-14T03:17:45.726Z,52130.88
2023-05-14T03:20:12.941Z,52167.50
2023-05-14T03:22:39.553Z,52167.50
2023-05-14T03:25:06.377Z,52187.84
2023-05-14T03:27:33.704Z,52145.09
2023-05-14T03:30:00.788Z,52134.94
2023-05-14T03:32:27.413Z,52169.53
2023-05-14T03:34:54.278Z,52130.88
2023-05-14T03:37:20.969Z,52163.41
2023-05-14T03:39:47.453Z,52147.13
2023-05-14T03:42:13.978Z,52167.50
2023-05-14T03:44:40.749Z,52145.09
2023-05-14T03:47:07.646Z,52183.75
2023-05-14T03:49:34.323Z,52169.53
2023-05-14T03:52:00.826Z,52163.41
2023-05-14T03:54:27.346Z,52212.25
2023-05-14T03:56:53.870Z,52218.34
2023-05-14T03:59:20.441Z,52143.06
2023-05-14T04:01:47.000Z,52175.63
2023-05-14T04:04:13.720Z,52161.38
2023-05-14T04:06:40.324Z,52187.84
2023-05-14T04:09:06.794Z,52159.34
2023-05-14T04:11:33.328Z,52183.75
2023-05-14T04:13:59.784Z,52167.50
2023-05-14T04:16:26.499Z,52187.84
2023-05-14T04:18:53.021Z,52226.50
2023-05-14T04:21:19.515Z,52171.56
2023-05-14T04:23:46.016Z,52195.97
2023-05-14T04:26:12.480Z,52202.06
2023-05-14T04:28:38.939Z,52165.44
2023-05-14T04:31:05.639Z,52167.50
2023-05-14T04:33:32.159Z,52208.19
2023-05-14T04:35:58.659Z,52167.50
2023-05-14T04:38:25.115Z,52163.41
2023-05-14T04:40:51.626Z,52183.75
2023-05-14T04:43:18.074Z,52198.00
2023-05-14T04:45:44.676Z,52185.81
2023-05-14T04:48:11.220Z,52208.19
2023-05-14T04:50:37.675Z,52171.56
2023-05-14T04:53:04.219Z,52198.00
2023-05-14T04:55:31.088Z,52171.56
2023-05-14T04:57:57.617Z,52155.28
2023-05-14T05:00:24.566Z,52169.53
2023-05-14T05:02:51.417Z,52143.06
2023-05-14T05:05:18.264Z,52122.72
2023-05-14T05:07:44.721Z,52145.09
2023-05-14T05:10:11.362Z,52157.31
2023-05-14T05:12:38.476Z,52149.19
2023-05-14T05:15:05.927Z,52090.16
2023-05-14T05:17:32.552Z,52126.78
2023-05-14T05:19:59.132Z,52118.66
2023-05-14T05:22:25.860Z,52100.34
2023-05-14T05:24:52.336Z,52065.75
2023-05-14T05:27:21.010Z,52061.69
2023-05-14T05:29:47.675Z,52041.34
2023-05-14T05:32:14.212Z,51964.03
2023-05-14T05:34:41.363Z,51909.09
2023-05-14T05:37:09.291Z,51852.13
2023-05-14T05:39:35.777Z,51884.69
2023-05-14T05:42:03.022Z,51793.13
2023-05-14T05:44:29.561Z,51770.75
2023-05-14T05:46:58.769Z,51766.69
2023-05-14T05:49:25.318Z,51756.50
2023-05-14T05:51:51.770Z,51728.03
2023-05-14T05:54:18.361Z,51691.41
2023-05-14T05:56:44.805Z,51689.38
2023-05-14T05:59:11.328Z,51667.00
2023-05-14T06:01:37.939Z,51667.00
2023-05-14T06:04:06.392Z,51681.22
2023-05-14T06:06:33.078Z,51673.09
2023-05-14T06:08:59.628Z,51646.66
2023-05-14T06:11:26.660Z,51658.84
2023-05-14T06:13:53.719Z,51644.63
2023-05-14T06:16:20.951Z,51634.44
2023-05-14T06:18:47.612Z,51605.97
2023-05-14T06:21:14.196Z,51610.03
2023-05-14T06:23:41.329Z,51575.44
2023-05-14T06:26:07.857Z,51601.91
2023-05-14T06:28:34.406Z,51577.47
2023-05-14T06:31:00.918Z,51555.09
2023-05-14T06:33:31.021Z,51579.50
2023-05-14T06:36:01.156Z,51579.50
2023-05-14T06:38:28.014Z,51559.16
2023-05-14T06:40:54.654Z,51589.69
2023-05-14T06:43:21.375Z,51540.88
2023-05-14T06:45:52.147Z,51565.28
2023-05-14T06:48:19.405Z,51520.53
2023-05-14T06:50:49.597Z,51534.75
2023-05-14T06:53:16.249Z,51553.06
2023-05-14T06:55:42.678Z,51516.44
2023-05-14T06:58:09.524Z,51500.19
2023-05-14T07:00:36.029Z,51496.09
2023-05-14T07:03:02.627Z,51510.34
2023-05-14T07:05:29.164Z,51528.66
2023-05-14T07:07:55.798Z,51534.75
2023-05-14T07:10:22.538Z,51530.69
2023-05-14T07:12:49.455Z,51549.00
2023-05-14T07:15:15.883Z,51542.91
2023-05-14T07:17:42.319Z,51555.09
2023-05-14T07:20:09.470Z,51583.59
2023-05-14T07:22:36.027Z,51599.84
2023-05-14T07:25:03.068Z,51589.69
2023-05-14T07:27:29.653Z,51601.91
2023-05-14T07:29:56.179Z,51612.06
2023-05-14T07:32:24.989Z,51660.88
2023-05-14T07:34:51.868Z,51610.03
2023-05-14T07:37:18.481Z,51648.69
2023-05-14T07:39:45.165Z,51677.16
2023-05-14T07:42:13.732Z,51620.19
2023-05-14T07:44:46.083Z,51642.59
2023-05-14T07:47:12.655Z,51675.13
2023-05-14T07:49:39.251Z,51648.69
2023-05-14T07:52:05.694Z,51638.50
2023-05-14T07:54:32.133Z,51669.03
2023-05-14T07:56:58.705Z,51630.38
2023-05-14T07:59:25.166Z,51671.06
2023-05-14T08:01:51.877Z,51658.84
2023-05-14T08:04:18.289Z,51662.94
2023-05-14T08:06:44.903Z,51646.66
2023-05-14T08:09:11.403Z,51640.53
2023-05-14T08:11:39.237Z,51636.47
2023-05-14T08:14:05.839Z,51612.06
2023-05-14T08:16:32.492Z,51628.34
2023-05-14T08:18:59.397Z,51620.19
2023-05-14T08:21:25.992Z,51605.97
2023-05-14T08:23:52.451Z,51642.59
2023-05-14T08:26:18.979Z,51634.44
2023-05-14T08:28:45.434Z,51681.22
2023-05-14T08:31:12.000Z,51634.44
2023-05-14T08:33:39.168Z,51622.25
2023-05-14T08:36:07.226Z,51603.94
2023-05-14T08:38:33.990Z,51620.19
2023-05-14T08:41:00.485Z,51595.78
2023-05-14T08:43:33.880Z,51603.94
2023-05-14T08:46:02.277Z,51660.88
2023-05-14T08:48:32.671Z,51603.94
2023-05-14T08:50:59.843Z,51583.59
2023-05-14T08:53:26.511Z,51612.06
2023-05-14T08:55:53.910Z,51603.94
2023-05-14T08:58:20.829Z,51650.72
2023-05-14T09:00:47.682Z,51646.66
2023-05-14T09:03:15.052Z,51642.59
2023-05-14T09:05:43.505Z,51638.50
2023-05-14T09:08:10.020Z,51620.19
2023-05-14T09:10:37.768Z,51660.88
2023-05-14T09:13:05.368Z,51605.97
2023-05-14T09:15:34.940Z,51648.69
2023-05-14T09:18:01.420Z,51595.78
2023-05-14T09:20:28.680Z,51656.81
2023-05-14T09:22:55.538Z,51628.34
2023-05-14T09:25:26.316Z,51673.09
2023-05-14T09:27:55.653Z,51691.41
2023-05-14T09:30:24.757Z,51703.63
2023-05-14T09:32:53.889Z,51660.88
2023-05-14T09:35:23.607Z,51673.09
2023-05-14T09:37:54.711Z,51683.28
2023-05-14T09:40:24.189Z,51715.81
2023-05-14T09:42:51.428Z,51677.16
2023-05-14T09:45:18.073Z,51689.38
2023-05-14T09:47:45.414Z,51685.31
2023-05-14T09:50:12.615Z,51679.19
2023-05-14T09:52:43.938Z,51689.38
2023-05-14T09:55:10.569Z,51721.94
2023-05-14T09:57:38.446Z,51675.13
2023-05-14T10:00:05.757Z,51693.44
2023-05-14T10:02:42.040Z,51699.53
2023-05-14T10:05:09.007Z,51697.50
2023-05-14T10:07:49.523Z,51675.13
2023-05-14T10:10:21.118Z,51673.09
2023-05-14T10:12:57.813Z,51687.34
2023-05-14T10:15:27.479Z,51664.97
2023-05-14T10:17:58.819Z,51683.28
2023-05-14T10:20:27.218Z,51669.03
2023-05-14T10:22:53.945Z,51693.44
2023-05-14T10:25:20.893Z,51669.03
2023-05-14T10:27:48.856Z,51656.81
2023-05-14T10:30:15.428Z,51679.19
2023-05-14T10:32:44.156Z,51638.50
2023-05-14T10:35:17.402Z,51646.66
2023-05-14T10:37:46.009Z,51626.31
2023-05-14T10:40:13.625Z,51616.13
2023-05-14T10:42:43.651Z,51585.63
2023-05-14T10:45:12.801Z,51605.97
2023-05-14T10:47:42.727Z,51595.78
2023-05-14T10:50:12.386Z,51567.31
2023-05-14T10:52:44.197Z,51634.44
2023-05-14T10:55:14.367Z,51614.09
2023-05-14T10:57:43.976Z,51636.47
2023-05-14T11:00:12.592Z,51626.31
2023-05-14T11:02:41.729Z,51640.53
2023-05-14T11:05:10.626Z,51634.44
2023-05-14T11:07:39.812Z,51656.81
2023-05-14T11:10:08.748Z,51687.34
2023-05-14T11:12:38.113Z,51685.31
2023-05-14T11:15:07.504Z,51648.69
2023-05-14T11:17:47.839Z,51667.00
2023-05-14T11:20:15.271Z,51681.22
2023-05-14T11:22:43.266Z,51683.28
2023-05-14T11:25:11.227Z,51636.47
2023-05-14T11:27:39.780Z,51662.94
2023-05-14T11:30:13.165Z,51610.03
2023-05-14T11:32:41.405Z,51628.34
2023-05-14T11:35:08.430Z,51589.69
2023-05-14T11:37:34.898Z,51626.31
2023-05-14T11:40:01.721Z,51583.59
2023-05-14T11:42:28.283Z,51579.50
2023-05-14T11:44:54.748Z,51614.09
2023-05-14T11:47:22.326Z,51626.31
2023-05-14T11:49:49.625Z,51603.94
2023-05-14T11:52:19.422Z,51616.13
2023-05-14T11:54:46.574Z,51634.44
2023-05-14T11:57:16.370Z,51626.31
2023-05-14T11:59:43.150Z,51597.81
2023-05-14T12:02:18.078Z,51614.09
2023-05-14T12:04:49.657Z,51620.19
2023-05-14T12:07:16.545Z,51630.38
2023-05-14T12:09:49.580Z,51603.94
2023-05-14T12:12:19.575Z,51632.41
2023-05-14T12:14:46.741Z,51618.16
2023-05-14T12:17:18.681Z,51622.25
2023-05-14T12:19:50.965Z,51640.53
2023-05-14T12:22:22.893Z,51622.25
2023-05-14T12:24:57.715Z,51636.47
2023-05-14T12:27:29.664Z,51634.44
2023-05-14T12:30:20.548Z,51642.59
2023-05-14T12:32:51.732Z,51620.19
2023-05-14T12:35:18.610Z,51669.03
2023-05-14T12:37:45.154Z,51634.44
2023-05-14T12:40:11.958Z,51660.88
2023-05-14T12:42:39.317Z,51669.03
2023-05-14T12:45:08.728Z,51652.75
2023-05-14T12:47:36.635Z,51675.13
2023-05-14T12:50:03.753Z,51656.81
2023-05-14T12:52:37.816Z,51656.81
2023-05-14T12:55:07.920Z,51667.00
2023-05-14T12:57:35.474Z,51685.31
2023-05-14T13:00:06.822Z,51687.34
2023-05-14T13:02:34.215Z,51650.72
2023-05-14T13:05:10.816Z,51646.66
2023-05-14T13:07:39.871Z,51634.44
2023-05-14T13:10:07.131Z,51654.78
2023-05-14T13:12:33.878Z,51646.66
2023-05-14T13:15:00.477Z,51603.94
2023-05-14T13:17:27.125Z,51630.38
2023-05-14T13:19:53.564Z,51618.16
2023-05-14T13:22:20.068Z,51614.09
2023-05-14T13:24:46.605Z,51605.97
2023-05-14T13:27:13.105Z,51634.44
2023-05-14T13:32:10.662Z,51664.97
2023-05-14T13:34:37.125Z,51622.25
2023-05-14T13:37:04.056Z,51636.47
2023-05-14T13:39:30.756Z,51652.75
2023-05-14T13:41:57.267Z,51640.53
2023-05-14T13:44:24.362Z,51648.69
2023-05-14T13:46:51.156Z,51636.47
2023-05-14T13:49:17.752Z,51656.81
2023-05-14T13:51:44.441Z,51634.44
2023-05-14T13:54:11.005Z,51656.81
2023-05-14T13:56:37.617Z,51654.78
2023-05-14T13:59:04.283Z,51683.28
2023-05-14T14:01:31.994Z,51646.66
2023-05-14T14:03:58.655Z,51683.28
2023-05-14T14:06:27.460Z,51671.06
2023-05-14T14:08:54.407Z,51646.66
2023-05-14T14:11:21.434Z,51669.03
2023-05-14T14:13:48.076Z,51662.94
2023-05-14T14:16:14.601Z,51671.06
2023-05-14T14:18:43.382Z,51652.75
2023-05-14T14:21:10.544Z,51689.38
2023-05-14T14:23:38.399Z,51652.75
2023-05-14T14:26:04.931Z,51646.66
2023-05-14T14:28:31.490Z,51667.00
2023-05-14T14:30:58.159Z,51652.75
2023-05-14T14:33:24.788Z,51648.69
2023-05-14T14:35:51.801Z,51636.47
2023-05-14T14:38:19.186Z,51630.38
2023-05-14T14:40:46.374Z,51634.44
2023-05-14T14:43:12.993Z,51634.44
2023-05-14T14:45:39.500Z,51614.09
2023-05-14T14:48:33.892Z,51646.66
2023-05-14T14:51:01.535Z,51656.81
2023-05-14T14:53:28.111Z,51597.81
2023-05-14T14:55:55.130Z,51685.31
2023-05-14T14:58:21.927Z,51654.78
2023-05-14T15:00:53.699Z,51677.16
2023-05-14T15:03:21.325Z,51664.97
2023-05-14T15:05:48.240Z,51695.47
2023-05-14T15:08:15.517Z,51675.13
2023-05-14T15:10:42.065Z,51697.50
2023-05-14T15:13:09.024Z,51701.56
2023-05-14T15:15:36.252Z,51719.88
2023-05-14T15:18:03.536Z,51685.31
2023-05-14T15:20:30.427Z,51691.41
2023-05-14T15:22:57.007Z,51738.19
2023-05-14T15:25:24.289Z,51732.09
2023-05-14T15:27:50.885Z,51715.81
2023-05-14T15:30:17.638Z,51748.38
2023-05-14T15:32:45.174Z,51744.31
2023-05-14T15:35:11.807Z,51760.56
2023-05-14T15:37:41.094Z,51738.19
2023-05-14T15:40:09.068Z,51717.84
2023-05-14T15:42:36.821Z,51734.13
2023-05-14T15:45:03.618Z,51738.19
2023-05-14T15:47:30.160Z,51711.75
2023-05-14T15:49:56.595Z,51760.56
2023-05-14T15:52:23.428Z,51734.13
2023-05-14T15:54:50.168Z,51770.75
2023-05-14T15:57:19.179Z,51752.44
2023-05-14T15:59:47.004Z,51756.50
2023-05-14T16:02:14.093Z,51756.50
2023-05-14T16:04:40.526Z,51762.63
2023-05-14T16:07:12.069Z,51764.66
2023-05-14T16:09:38.813Z,51768.72
2023-05-14T16:12:06.191Z,51760.56
2023-05-14T16:14:35.897Z,51742.28
2023-05-14T16:17:02.421Z,51740.22
2023-05-14T16:19:29.044Z,51734.13
2023-05-14T16:21:56.671Z,51744.31
2023-05-14T16:24:23.150Z,51754.47
2023-05-14T16:26:49.667Z,51748.38
2023-05-14T16:29:16.428Z,51738.19
2023-05-14T16:31:42.880Z,51760.56
2023-05-14T16:34:09.412Z,51770.75
2023-05-14T16:36:36.000Z,51760.56
2023-05-14T16:41:32.405Z,51748.38
2023-05-14T16:43:58.892Z,51734.13
2023-05-14T16:46:25.515Z,51776.84
2023-05-14T16:48:52.006Z,51782.97
2023-05-14T16:51:18.464Z,51778.88
2023-05-14T16:53:45.014Z,51776.84
2023-05-14T16:56:11.550Z,51778.88
2023-05-14T16:58:38.239Z,51817.53
2023-05-14T17:01:06.281Z,51819.56
2023-05-14T17:03:33.933Z,51776.84
2023-05-14T17:06:01.122Z,51799.22
2023-05-14T17:08:33.153Z,51825.69
2023-05-14T17:10:59.758Z,51805.34
2023-05-14T17:13:26.319Z,51805.34
2023-05-14T17:15:53.285Z,51782.97
2023-05-14T17:18:19.867Z,51807.38
2023-05-14T17:20:46.359Z,51819.56
2023-05-14T17:23:13.608Z,51809.41
2023-05-14T17:25:40.090Z,51793.13
2023-05-14T17:28:06.732Z,51787.03
2023-05-14T17:30:33.230Z,51809.41
2023-05-14T17:33:00.091Z,51805.34
2023-05-14T17:35:26.864Z,51819.56
2023-05-14T17:37:56.111Z,51831.78
2023-05-14T17:40:22.624Z,51801.25
2023-05-14T17:42:49.356Z,51801.25
2023-05-14T17:45:20.686Z,51850.09
2023-05-14T17:47:49.325Z,51789.06
2023-05-14T17:50:15.886Z,51807.38
2023-05-14T17:52:44.234Z,51815.50
2023-05-14T17:55:11.139Z,51805.34
2023-05-14T17:57:37.740Z,51837.88
2023-05-14T18:00:07.575Z,51850.09
2023-05-14T18:02:34.180Z,51833.81
2023-05-14T18:05:02.615Z,51801.25
2023-05-14T18:07:30.198Z,51801.25
2023-05-14T18:09:57.151Z,51872.47
2023-05-14T18:12:25.633Z,51837.88
2023-05-14T18:14:52.988Z,51825.69
2023-05-14T18:17:19.468Z,51825.69
2023-05-14T18:19:45.961Z,51844.00
2023-05-14T18:22:13.216Z,51874.50
2023-05-14T18:24:39.729Z,51882.66
2023-05-14T18:27:06.348Z,51839.91
2023-05-14T18:29:33.229Z,51866.38
2023-05-14T18:31:59.729Z,51852.13
2023-05-14T18:34:26.255Z,51886.72
2023-05-14T18:36:52.843Z,51866.38
2023-05-14T18:39:24.072Z,51868.41
2023-05-14T18:41:50.723Z,51846.03
2023-05-14T18:44:17.179Z,51900.97
2023-05-14T18:46:44.621Z,51878.56
2023-05-14T18:49:11.254Z,51884.69
2023-05-14T18:51:37.746Z,51921.31
2023-05-14T18:54:04.661Z,51913.16
2023-05-14T18:56:31.316Z,51866.38
2023-05-14T18:58:57.784Z,51888.75
2023-05-14T19:01:25.630Z,51925.38
2023-05-14T19:03:53.140Z,51913.16
2023-05-14T19:06:19.938Z,51905.03
2023-05-14T19:08:46.468Z,51923.34
2023-05-14T19:11:13.046Z,51935.53
2023-05-14T19:13:39.585Z,51911.13
2023-05-14T19:16:06.721Z,51939.63
2023-05-14T19:18:33.380Z,51917.22
2023-05-14T19:21:00.015Z,51939.63
2023-05-14T19:23:26.586Z,51933.50
2023-05-14T19:25:54.084Z,51909.09
2023-05-14T19:28:20.659Z,51911.13
2023-05-14T19:30:47.751Z,51939.63
2023-05-14T19:33:15.087Z,51919.28
2023-05-14T19:35:41.713Z,51974.19
2023-05-14T19:38:10.431Z,51947.75
2023-05-14T19:40:36.979Z,51909.09
2023-05-14T19:43:05.438Z,51982.34
2023-05-14T19:45:32.016Z,51986.41
2023-05-14T19:47:58.521Z,51974.19
2023-05-14T19:50:25.051Z,51964.03
2023-05-14T19:52:52.804Z,51939.63
2023-05-14T19:55:19.234Z,51964.03
2023-05-14T19:57:45.747Z,51962.00
2023-05-14T20:00:13.570Z,51974.19
2023-05-14T20:02:41.014Z,52012.84
2023-05-14T20:05:09.242Z,51984.38
2023-05-14T20:07:36.460Z,52006.75
2023-05-14T20:10:05.690Z,51996.59
2023-05-14T20:12:32.185Z,51994.53
2023-05-14T20:14:58.631Z,51959.97
2023-05-14T20:17:25.151Z,51980.31
2023-05-14T20:19:52.763Z,52010.81
2023-05-14T20:22:19.203Z,52000.66
2023-05-14T20:24:46.809Z,52031.16
2023-05-14T20:27:13.345Z,51972.16
2023-05-14T20:29:39.855Z,52033.19
2023-05-14T20:32:06.929Z,52039.31
2023-05-14T20:34:33.410Z,52021.00
2023-05-14T20:37:00.160Z,51988.44
2023-05-14T20:39:27.514Z,52021.00
2023-05-14T20:41:53.971Z,52014.88
2023-05-14T20:47:02.838Z,52021.00
2023-05-14T20:49:29.438Z,52002.69
2023-05-14T20:51:56.033Z,52014.88
2023-05-14T20:54:26.837Z,52039.31
2023-05-14T20:56:53.867Z,52035.25
2023-05-14T20:59:20.604Z,52049.47
2023-05-14T21:01:47.158Z,52041.34
2023-05-14T21:04:15.893Z,52065.75
2023-05-14T21:06:42.574Z,52067.78
2023-05-14T21:09:09.408Z,52049.47
2023-05-14T21:11:35.971Z,52080.00
2023-05-14T21:14:02.412Z,52075.94
2023-05-14T21:16:31.109Z,52047.44
2023-05-14T21:18:57.725Z,52051.50
2023-05-14T21:21:24.533Z,52053.53
2023-05-14T21:23:52.395Z,52012.84
2023-05-14T21:26:23.623Z,52031.16
2023-05-14T21:28:50.386Z,52112.56
2023-05-14T21:31:16.969Z,52077.97
2023-05-14T21:33:46.551Z,52047.44
2023-05-14T21:36:13.159Z,52071.84
2023-05-14T21:38:39.749Z,52057.63
2023-05-14T21:41:06.154Z,52039.31
2023-05-14T21:43:33.003Z,52039.31
2023-05-14T21:45:59.395Z,52061.69
2023-05-14T21:48:26.056Z,52041.34
2023-05-14T21:50:52.633Z,52061.69
2023-05-14T21:53:19.216Z,52073.91
2023-05-14T21:55:45.727Z,52055.59
2023-05-14T21:58:12.268Z,52090.16
2023-05-14T22:00:38.894Z,52051.50
2023-05-14T22:03:05.415Z,52082.03
2023-05-14T22:05:31.897Z,52077.97
2023-05-14T22:07:58.442Z,52086.09
2023-05-14T22:10:25.039Z,52102.38
2023-05-14T22:12:51.508Z,52053.53
2023-05-14T22:15:17.959Z,52082.03
2023-05-14T22:17:45.063Z,52057.63
2023-05-14T22:20:11.654Z,52088.13
2023-05-14T22:22:39.318Z,52090.16
2023-05-14T22:25:06.176Z,52100.34
2023-05-14T22:27:32.702Z,52102.38
2023-05-14T22:29:59.294Z,52077.97
2023-05-14T22:32:26.130Z,52096.28
2023-05-14T22:34:52.803Z,52112.56
2023-05-14T22:37:19.275Z,52059.66
2023-05-14T22:39:45.747Z,52100.34
2023-05-14T22:42:12.259Z,52096.28
2023-05-14T22:44:38.714Z,52104.41
2023-05-14T22:47:05.273Z,52075.94
2023-05-14T22:49:31.923Z,52092.22
2023-05-14T22:51:58.479Z,52059.66
2023-05-14T22:54:24.944Z,52088.13
2023-05-14T22:56:51.558Z,52104.41
2023-05-14T22:59:18.483Z,52073.91
2023-05-14T23:01:45.079Z,52077.97
2023-05-14T23:04:11.608Z,52071.84
2023-05-14T23:06:38.098Z,52100.34
2023-05-14T23:09:04.544Z,52094.25
2023-05-14T23:11:31.024Z,52082.03
2023-05-14T23:13:57.560Z,52086.09
2023-05-14T23:16:24.188Z,52090.16
2023-05-14T23:18:51.355Z,52088.13
2023-05-14T23:21:17.897Z,52116.63
2023-05-14T23:23:45.388Z,52108.47
2023-05-14T23:26:12.101Z,52090.16
2023-05-14T23:28:38.525Z,52118.66
2023-05-14T23:31:05.059Z,52096.28
2023-05-14T23:33:31.502Z,52094.25
2023-05-14T23:35:58.091Z,52132.91
2023-05-14T23:38:24.697Z,52134.94
2023-05-14T23:40:51.121Z,52122.72
2023-05-14T23:43:17.717Z,52120.69
2023-05-14T23:45:44.244Z,52114.59
2023-05-14T23:48:10.798Z,52145.09
2023-05-14T23:50:38.171Z,52118.66
2023-05-14T23:53:04.596Z,52165.44
2023-05-14T23:55:31.168Z,52130.88
2023-05-14T23:57:57.591Z,52132.91
